createdAt,value
2018-02-18T00:00:13.738Z,4.49
2018-02-18T00:02:43.169Z,4.47
2018-02-18T00:05:12.936Z,4.43
2018-02-18T00:07:42.097Z,4.49
2018-02-18T00:10:11.236Z,4.49
2018-02-18T00:12:40.561Z,4.46
2018-02-18T00:15:12.101Z,4.49
2018-02-18T00:17:41.178Z,4.46
2018-02-18T00:20:10.075Z,4.45
2018-02-18T00:22:39.394Z,4.42
2018-02-18T00:25:08.715Z,4.36
2018-02-18T00:27:38.045Z,4.41
2018-02-18T00:30:07.419Z,4.47
2018-02-18T00:32:36.880Z,4.44
2018-02-18T00:35:06.256Z,4.44
2018-02-18T00:37:35.600Z,4.62
2018-02-18T00:40:04.870Z,4.44
2018-02-18T00:42:33.857Z,4.36
2018-02-18T00:45:02.891Z,4.29
2018-02-18T00:47:31.902Z,4.33
2018-02-18T00:50:01.402Z,4.28
2018-02-18T00:52:30.756Z,4.23
2018-02-18T00:54:59.833Z,4.21
2018-02-18T00:57:29.204Z,4.24
2018-02-18T00:59:58.270Z,4.26
2018-02-18T01:02:27.634Z,4.28
2018-02-18T01:04:56.790Z,4.27
2018-02-18T01:07:26.395Z,4.22
2018-02-18T01:09:55.846Z,4.38
2018-02-18T01:12:25.418Z,4.31
2018-02-18T01:14:54.566Z,4.30
2018-02-18T01:17:23.755Z,4.27
2018-02-18T01:19:53.228Z,4.26
2018-02-18T01:22:22.731Z,4.17
2018-02-18T01:24:51.853Z,4.39
2018-02-18T01:27:21.106Z,4.26
2018-02-18T01:29:50.258Z,4.19
2018-02-18T01:32:19.423Z,4.11
2018-02-18T01:34:48.816Z,4.04
2018-02-18T01:37:17.905Z,4.07
2018-02-18T01:39:47.117Z,4.05
2018-02-18T01:42:16.698Z,3.89
2018-02-18T01:44:45.717Z,3.83
2018-02-18T01:47:14.871Z,3.78
2018-02-18T01:49:43.990Z,3.68
2018-02-18T01:52:13.343Z,3.59
2018-02-18T01:54:42.361Z,3.47
2018-02-18T01:57:11.351Z,3.58
2018-02-18T01:59:40.200Z,4.14
2018-02-18T02:02:09.083Z,3.64
2018-02-18T02:04:39.124Z,3.50
2018-02-18T02:07:08.182Z,3.33
2018-02-18T02:09:37.458Z,3.21
2018-02-18T02:12:06.739Z,3.23
2018-02-18T02:14:35.795Z,3.10
2018-02-18T02:17:04.754Z,3.25
2018-02-18T02:19:34.187Z,3.23
2018-02-18T02:22:03.466Z,3.18
2018-02-18T02:24:32.505Z,3.40
2018-02-18T02:27:01.675Z,3.11
2018-02-18T02:29:30.818Z,2.93
2018-02-18T02:32:00.102Z,2.87
2018-02-18T02:34:29.203Z,2.89
2018-02-18T02:36:58.355Z,2.89
2018-02-18T02:39:27.875Z,2.94
2018-02-18T02:41:57.137Z,3.02
2018-02-18T02:44:26.534Z,2.93
2018-02-18T02:46:56.084Z,2.93
2018-02-18T02:49:25.101Z,2.98
2018-02-18T02:51:54.677Z,2.96
2018-02-18T02:54:23.882Z,2.93
2018-02-18T02:56:53.170Z,2.79
2018-02-18T02:59:22.267Z,2.87
2018-02-18T03:01:51.397Z,2.74
2018-02-18T03:04:20.869Z,2.91
2018-02-18T03:06:49.897Z,2.84
2018-02-18T03:09:19.156Z,2.72
2018-02-18T03:11:48.474Z,2.63
2018-02-18T03:14:18.250Z,2.58
2018-02-18T03:16:47.483Z,2.55
2018-02-18T03:19:16.710Z,2.89
2018-02-18T03:21:45.984Z,3.46
2018-02-18T03:24:15.591Z,3.33
2018-02-18T03:26:44.870Z,2.83
2018-02-18T03:29:13.882Z,2.65
2018-02-18T03:31:43.266Z,2.61
2018-02-18T03:34:12.509Z,2.63
2018-02-18T03:36:41.417Z,2.54
2018-02-18T03:39:10.462Z,2.59
2018-02-18T03:41:39.838Z,2.54
2018-02-18T03:44:09.126Z,2.49
2018-02-18T03:46:38.298Z,2.56
2018-02-18T03:49:07.719Z,2.49
2018-02-18T03:51:37.378Z,2.45
2018-02-18T03:54:06.662Z,2.42
2018-02-18T03:56:35.977Z,2.39
2018-02-18T03:59:05.380Z,2.59
2018-02-18T04:01:34.680Z,2.54
2018-02-18T04:04:03.913Z,2.41
2018-02-18T04:06:44.352Z,2.46
2018-02-18T04:09:15.997Z,2.42
2018-02-18T04:11:44.989Z,2.40
2018-02-18T04:14:14.206Z,2.42
2018-02-18T04:16:43.527Z,2.36
2018-02-18T04:19:12.681Z,2.26
2018-02-18T04:21:41.813Z,2.34
2018-02-18T04:24:11.194Z,2.32
2018-02-18T04:26:40.635Z,2.30
2018-02-18T04:29:09.887Z,2.29
2018-02-18T04:31:39.121Z,2.32
2018-02-18T04:34:08.714Z,2.33
2018-02-18T04:36:37.711Z,2.25
2018-02-18T04:39:06.826Z,2.22
2018-02-18T04:41:35.978Z,2.25
2018-02-18T04:44:05.242Z,2.27
2018-02-18T04:46:34.918Z,2.28
2018-02-18T04:49:04.074Z,2.19
2018-02-18T04:51:33.114Z,2.12
2018-02-18T04:54:02.697Z,2.23
2018-02-18T04:56:31.950Z,2.11
2018-02-18T04:59:01.499Z,2.12
2018-02-18T05:01:30.688Z,2.24
2018-02-18T05:03:59.858Z,2.26
2018-02-18T05:06:28.714Z,2.26
2018-02-18T05:08:57.749Z,2.30
2018-02-18T05:11:26.939Z,2.19
2018-02-18T05:13:56.201Z,2.25
2018-02-18T05:16:25.626Z,2.27
2018-02-18T05:18:54.606Z,2.29
2018-02-18T05:21:23.869Z,2.29
2018-02-18T05:23:53.790Z,2.16
2018-02-18T05:26:23.527Z,2.16
2018-02-18T05:28:52.819Z,2.24
2018-02-18T05:31:21.830Z,2.27
2018-02-18T05:33:50.962Z,2.33
2018-02-18T05:36:19.949Z,2.40
2018-02-18T05:38:49.090Z,2.56
2018-02-18T05:41:18.171Z,2.55
2018-02-18T05:43:47.814Z,2.54
2018-02-18T05:46:17.213Z,2.59
2018-02-18T05:48:46.526Z,2.67
2018-02-18T05:51:15.990Z,2.76
2018-02-18T05:53:45.322Z,2.82
2018-02-18T05:56:14.715Z,2.91
2018-02-18T05:58:43.989Z,3.02
2018-02-18T06:01:13.021Z,3.07
2018-02-18T06:03:42.111Z,3.07
2018-02-18T06:06:11.446Z,3.23
2018-02-18T06:08:40.547Z,3.31
2018-02-18T06:11:09.872Z,3.48
2018-02-18T06:13:39.255Z,3.50
2018-02-18T06:16:08.339Z,3.44
2018-02-18T06:18:37.486Z,3.40
2018-02-18T06:21:06.865Z,3.55
2018-02-18T06:23:36.175Z,3.54
2018-02-18T06:26:05.411Z,3.74
2018-02-18T06:28:35.234Z,3.82
2018-02-18T06:31:04.492Z,3.97
2018-02-18T06:33:34.094Z,3.94
2018-02-18T06:36:03.367Z,4.14
2018-02-18T06:38:33.010Z,4.05
2018-02-18T06:41:02.298Z,3.87
2018-02-18T06:43:31.162Z,3.75
2018-02-18T06:46:00.707Z,3.79
2018-02-18T06:48:30.104Z,3.86
2018-02-18T06:50:59.363Z,3.87
2018-02-18T06:53:28.562Z,3.86
2018-02-18T06:55:57.907Z,4.00
2018-02-18T06:58:27.301Z,3.66
2018-02-18T07:00:56.561Z,3.58
2018-02-18T07:03:25.837Z,4.01
2018-02-18T07:05:54.999Z,3.88
2018-02-18T07:08:24.559Z,4.02
2018-02-18T07:10:53.838Z,3.88
2018-02-18T07:13:22.846Z,4.03
2018-02-18T07:15:51.841Z,3.95
2018-02-18T07:18:21.062Z,3.80
2018-02-18T07:20:50.389Z,3.99
2018-02-18T07:23:19.558Z,4.05
2018-02-18T07:25:48.522Z,4.10
2018-02-18T07:28:17.521Z,4.20
2018-02-18T07:30:46.837Z,4.33
2018-02-18T07:33:16.291Z,4.46
2018-02-18T07:35:45.587Z,4.74
2018-02-18T07:38:14.674Z,4.92
2018-02-18T07:40:44.341Z,4.88
2018-02-18T07:43:13.218Z,5.05
2018-02-18T07:45:42.519Z,5.08
2018-02-18T07:48:11.979Z,5.06
2018-02-18T07:50:41.113Z,5.07
2018-02-18T07:53:10.390Z,5.34
2018-02-18T07:55:39.694Z,5.30
2018-02-18T07:58:08.770Z,5.46
2018-02-18T08:00:38.178Z,5.38
2018-02-18T08:03:07.158Z,5.48
2018-02-18T08:05:36.153Z,5.58
2018-02-18T08:08:05.326Z,5.42
2018-02-18T08:10:34.768Z,5.61
2018-02-18T08:13:04.239Z,5.88
2018-02-18T08:15:33.361Z,6.51
2018-02-18T08:18:02.566Z,6.76
2018-02-18T08:20:32.081Z,6.51
2018-02-18T08:23:01.122Z,6.65
2018-02-18T08:25:30.011Z,6.23
2018-02-18T08:27:59.139Z,6.08
2018-02-18T08:30:28.182Z,6.13
2018-02-18T08:32:57.274Z,6.15
2018-02-18T08:35:26.393Z,6.28
2018-02-18T08:37:55.678Z,6.36
2018-02-18T08:40:24.946Z,6.40
2018-02-18T08:42:54.148Z,6.53
2018-02-18T08:45:23.653Z,6.85
2018-02-18T08:47:52.679Z,6.73
2018-02-18T08:50:22.218Z,6.73
2018-02-18T08:52:51.541Z,6.54
2018-02-18T08:55:20.751Z,6.69
2018-02-18T08:57:49.757Z,6.66
2018-02-18T09:00:19.027Z,6.79
2018-02-18T09:02:48.237Z,7.08
2018-02-18T09:05:17.542Z,7.15
2018-02-18T09:07:46.559Z,7.11
2018-02-18T09:10:15.679Z,7.01
2018-02-18T09:12:44.678Z,6.92
2018-02-18T09:15:13.818Z,6.99
2018-02-18T09:17:42.704Z,6.98
2018-02-18T09:20:12.120Z,7.33
2018-02-18T09:22:41.166Z,7.37
2018-02-18T09:25:10.189Z,7.35
2018-02-18T09:27:39.492Z,7.21
2018-02-18T09:30:08.663Z,7.52
2018-02-18T09:32:37.797Z,7.56
2018-02-18T09:35:08.048Z,7.68
2018-02-18T09:37:37.324Z,8.30
2018-02-18T09:40:06.619Z,7.61
2018-02-18T09:42:35.856Z,7.74
2018-02-18T09:45:05.430Z,7.91
2018-02-18T09:47:34.590Z,8.01
2018-02-18T09:50:03.931Z,8.64
2018-02-18T09:52:33.534Z,8.75
2018-02-18T09:55:02.549Z,8.76
2018-02-18T09:57:32.071Z,8.83
2018-02-18T10:00:01.054Z,9.23
2018-02-18T10:02:30.171Z,9.27
2018-02-18T10:04:59.417Z,9.01
2018-02-18T10:07:28.823Z,9.18
2018-02-18T10:09:57.693Z,9.27
2018-02-18T10:12:26.642Z,9.92
2018-02-18T10:14:56.212Z,9.60
2018-02-18T10:17:26.042Z,9.77
2018-02-18T10:19:55.625Z,9.33
2018-02-18T10:22:24.728Z,9.48
2018-02-18T10:24:53.966Z,8.96
2018-02-18T10:27:22.957Z,9.65
2018-02-18T10:29:52.161Z,9.72
2018-02-18T10:32:21.526Z,9.37
2018-02-18T10:34:56.798Z,8.63
2018-02-18T10:37:31.751Z,8.88
2018-02-18T10:40:01.202Z,9.11
2018-02-18T10:42:30.651Z,9.65
2018-02-18T10:45:00.013Z,9.61
2018-02-18T10:47:29.141Z,9.27
2018-02-18T10:49:58.262Z,9.04
2018-02-18T10:52:27.747Z,9.60
2018-02-18T10:54:57.113Z,9.41
2018-02-18T10:57:26.207Z,9.18
2018-02-18T10:59:55.401Z,8.32
2018-02-18T11:02:24.863Z,8.40
2018-02-18T11:04:54.010Z,8.45
2018-02-18T11:07:23.451Z,8.56
2018-02-18T11:09:52.646Z,8.37
2018-02-18T11:12:21.802Z,8.95
2018-02-18T11:14:50.901Z,8.60
2018-02-18T11:17:19.988Z,8.69
2018-02-18T11:19:49.236Z,9.27
2018-02-18T11:22:18.430Z,9.21
2018-02-18T11:24:48.001Z,9.02
2018-02-18T11:27:16.982Z,8.72
2018-02-18T11:29:46.510Z,8.77
2018-02-18T11:32:15.494Z,9.10
2018-02-18T11:34:44.698Z,8.27
2018-02-18T11:37:13.718Z,9.01
2018-02-18T11:39:42.627Z,9.00
2018-02-18T11:42:12.064Z,8.81
2018-02-18T11:44:41.627Z,9.03
2018-02-18T11:47:10.756Z,9.05
2018-02-18T11:49:40.343Z,9.52
2018-02-18T11:52:09.374Z,9.31
2018-02-18T11:54:38.582Z,9.21
2018-02-18T11:57:07.823Z,9.25
2018-02-18T11:59:37.346Z,9.04
2018-02-18T12:02:06.629Z,8.79
2018-02-18T12:04:35.984Z,9.00
2018-02-18T12:07:05.188Z,9.25
2018-02-18T12:09:34.324Z,9.35
2018-02-18T12:12:03.694Z,9.37
2018-02-18T12:14:32.999Z,9.68
2018-02-18T12:17:02.535Z,9.06
2018-02-18T12:19:31.837Z,8.70
2018-02-18T12:22:01.034Z,9.29
2018-02-18T12:24:30.806Z,9.14
2018-02-18T12:27:00.045Z,9.03
2018-02-18T12:29:29.315Z,9.69
2018-02-18T12:31:58.197Z,9.47
2018-02-18T12:34:27.471Z,9.61
2018-02-18T12:36:56.547Z,9.84
2018-02-18T12:39:25.662Z,10.10
2018-02-18T12:41:54.671Z,9.61
2018-02-18T12:44:23.913Z,9.47
2018-02-18T12:46:53.019Z,9.64
2018-02-18T12:49:22.322Z,9.39
2018-02-18T12:51:51.895Z,9.62
2018-02-18T12:54:21.228Z,9.19
2018-02-18T12:56:50.603Z,9.05
2018-02-18T12:59:19.982Z,9.70
2018-02-18T13:01:49.187Z,9.30
2018-02-18T13:04:18.221Z,10.07
2018-02-18T13:06:47.583Z,10.31
2018-02-18T13:09:17.104Z,9.87
2018-02-18T13:11:46.345Z,10.42
2018-02-18T13:14:15.693Z,10.24
2018-02-18T13:16:44.733Z,10.29
2018-02-18T13:19:13.891Z,9.96
2018-02-18T13:21:43.147Z,10.13
2018-02-18T13:24:12.218Z,10.13
2018-02-18T13:26:41.612Z,9.73
2018-02-18T13:29:10.998Z,9.92
2018-02-18T13:31:40.053Z,9.43
2018-02-18T13:34:09.396Z,9.96
2018-02-18T13:36:38.658Z,9.27
2018-02-18T13:39:08.022Z,9.25
2018-02-18T13:41:37.298Z,9.13
2018-02-18T13:44:06.594Z,9.37
2018-02-18T13:46:35.550Z,9.07
2018-02-18T13:49:04.699Z,9.27
2018-02-18T13:51:34.287Z,8.84
2018-02-18T13:54:03.622Z,9.53
2018-02-18T13:56:32.598Z,9.21
2018-02-18T13:59:01.926Z,9.87
2018-02-18T14:01:31.076Z,9.38
2018-02-18T14:04:00.007Z,9.79
2018-02-18T14:06:29.263Z,9.84
2018-02-18T14:08:58.334Z,9.61
2018-02-18T14:11:27.691Z,9.37
2018-02-18T14:13:56.962Z,9.58
2018-02-18T14:16:26.078Z,9.21
2018-02-18T14:18:55.679Z,9.09
2018-02-18T14:21:25.325Z,9.16
2018-02-18T14:23:54.302Z,9.15
2018-02-18T14:26:23.282Z,9.62
2018-02-18T14:28:52.360Z,9.48
2018-02-18T14:31:21.657Z,9.08
2018-02-18T14:33:50.743Z,9.55
2018-02-18T14:36:19.674Z,9.21
2018-02-18T14:38:48.686Z,9.21
2018-02-18T14:41:29.203Z,9.58
2018-02-18T14:44:09.543Z,8.80
2018-02-18T14:46:50.090Z,8.84
2018-02-18T14:49:30.394Z,8.95
2018-02-18T14:52:10.651Z,8.85
2018-02-18T14:57:44.777Z,8.45
2018-02-18T15:00:13.850Z,8.73
2018-02-18T15:02:43.482Z,9.24
2018-02-18T15:05:12.811Z,8.80
2018-02-18T15:07:42.291Z,8.72
2018-02-18T15:10:12.434Z,8.71
2018-02-18T15:12:41.875Z,8.56
2018-02-18T15:15:10.966Z,8.47
2018-02-18T15:17:40.194Z,8.54
2018-02-18T15:20:09.194Z,8.35
2018-02-18T15:22:38.576Z,8.21
2018-02-18T15:25:07.846Z,8.28
2018-02-18T15:27:36.982Z,8.22
2018-02-18T15:30:06.050Z,8.01
2018-02-18T15:32:35.325Z,7.90
2018-02-18T15:35:04.409Z,8.19
2018-02-18T15:37:33.562Z,8.28
2018-02-18T15:40:03.103Z,7.88
2018-02-18T15:42:32.401Z,8.28
2018-02-18T15:45:01.702Z,8.37
2018-02-18T15:47:30.694Z,8.31
2018-02-18T15:49:59.638Z,7.90
2018-02-18T15:52:28.493Z,7.58
2018-02-18T15:54:57.854Z,7.61
2018-02-18T15:57:26.731Z,7.71
2018-02-18T15:59:55.598Z,7.67
2018-02-18T16:02:24.575Z,7.93
2018-02-18T16:04:53.997Z,7.55
2018-02-18T16:07:23.127Z,7.58
2018-02-18T16:09:52.013Z,7.79
2018-02-18T16:12:21.075Z,7.99
2018-02-18T16:14:50.378Z,8.08
2018-02-18T16:17:19.554Z,7.77
2018-02-18T16:19:49.638Z,7.40
2018-02-18T16:22:19.059Z,7.40
2018-02-18T16:24:48.336Z,7.68
2018-02-18T16:27:17.674Z,7.49
2018-02-18T16:29:46.947Z,7.58
2018-02-18T16:32:20.911Z,7.38
2018-02-18T16:34:55.227Z,7.71
2018-02-18T16:37:24.479Z,7.47
2018-02-18T16:39:53.562Z,7.35
2018-02-18T16:42:22.866Z,7.55
2018-02-18T16:44:52.246Z,7.59
2018-02-18T16:47:21.611Z,7.69
2018-02-18T16:49:51.202Z,7.33
2018-02-18T16:52:20.470Z,7.41
2018-02-18T16:54:49.586Z,7.53
2018-02-18T16:57:18.696Z,7.77
2018-02-18T16:59:47.611Z,8.03
2018-02-18T17:02:17.054Z,7.45
2018-02-18T17:04:46.165Z,7.37
2018-02-18T17:07:15.213Z,7.67
2018-02-18T17:09:44.401Z,7.50
2018-02-18T17:12:13.335Z,7.59
2018-02-18T17:14:42.466Z,7.42
2018-02-18T17:17:11.773Z,7.73
2018-02-18T17:19:40.980Z,7.42
2018-02-18T17:22:10.354Z,7.56
2018-02-18T17:24:39.680Z,7.53
2018-02-18T17:27:08.961Z,7.85
2018-02-18T17:29:38.132Z,7.74
2018-02-18T17:32:07.467Z,7.27
2018-02-18T17:34:36.731Z,7.54
2018-02-18T17:37:05.639Z,7.22
2018-02-18T17:39:34.959Z,7.14
2018-02-18T17:42:04.167Z,7.14
2018-02-18T17:44:33.429Z,7.02
2018-02-18T17:47:02.606Z,7.13
2018-02-18T17:49:31.791Z,7.42
2018-02-18T17:52:01.339Z,7.31
2018-02-18T17:54:30.982Z,7.14
2018-02-18T17:57:00.138Z,7.41
2018-02-18T17:59:29.302Z,7.15
2018-02-18T18:01:58.334Z,7.13
2018-02-18T18:04:27.319Z,7.27
2018-02-18T18:06:56.555Z,7.47
2018-02-18T18:09:25.864Z,7.53
2018-02-18T18:11:55.115Z,7.51
2018-02-18T18:14:23.965Z,7.32
2018-02-18T18:16:53.024Z,7.67
2018-02-18T18:19:22.298Z,7.98
2018-02-18T18:21:51.638Z,8.14
2018-02-18T18:24:20.660Z,7.38
2018-02-18T18:26:49.991Z,7.34
2018-02-18T18:29:19.078Z,7.98
2018-02-18T18:31:48.476Z,8.05
2018-02-18T18:34:17.635Z,7.67
2018-02-18T18:36:46.606Z,7.60
2018-02-18T18:39:15.558Z,7.65
2018-02-18T18:41:44.746Z,7.73
2018-02-18T18:44:13.957Z,7.79
2018-02-18T18:46:42.971Z,7.89
2018-02-18T18:49:12.206Z,7.51
2018-02-18T18:51:41.197Z,7.48
2018-02-18T18:54:10.467Z,7.73
2018-02-18T18:56:39.458Z,7.53
2018-02-18T18:59:08.490Z,7.33
2018-02-18T19:01:37.551Z,7.26
2018-02-18T19:04:07.106Z,7.60
2018-02-18T19:06:36.202Z,7.78
2018-02-18T19:09:05.531Z,7.35
2018-02-18T19:11:34.694Z,7.29
2018-02-18T19:14:03.713Z,7.51
2018-02-18T19:16:32.984Z,7.55
2018-02-18T19:19:02.315Z,7.40
2018-02-18T19:21:31.399Z,7.40
2018-02-18T19:24:00.654Z,7.65
2018-02-18T19:26:30.543Z,7.61
2018-02-18T19:28:59.667Z,7.17
2018-02-18T19:31:28.554Z,7.25
2018-02-18T19:33:58.035Z,7.30
2018-02-18T19:36:27.069Z,7.34
2018-02-18T19:38:56.199Z,7.32
2018-02-18T19:41:25.307Z,7.17
2018-02-18T19:43:54.424Z,7.32
2018-02-18T19:46:23.838Z,7.24
2018-02-18T19:48:53.139Z,7.15
2018-02-18T19:51:22.688Z,7.03
2018-02-18T19:53:51.666Z,7.00
2018-02-18T19:56:21.280Z,7.17
2018-02-18T19:58:50.764Z,6.98
2018-02-18T20:01:19.770Z,6.92
2018-02-18T20:03:48.783Z,6.97
2018-02-18T20:06:17.960Z,7.15
2018-02-18T20:08:47.281Z,6.93
2018-02-18T20:11:16.315Z,6.90
2018-02-18T20:13:45.790Z,6.89
2018-02-18T20:16:15.172Z,7.20
2018-02-18T20:18:44.282Z,7.19
2018-02-18T20:21:13.594Z,7.02
2018-02-18T20:23:42.902Z,7.02
2018-02-18T20:26:12.171Z,7.07
2018-02-18T20:28:41.449Z,7.02
2018-02-18T20:31:10.637Z,7.51
2018-02-18T20:33:39.703Z,7.58
2018-02-18T20:36:09.107Z,7.66
2018-02-18T20:38:38.171Z,7.32
2018-02-18T20:41:07.398Z,7.20
2018-02-18T20:43:36.631Z,7.17
2018-02-18T20:46:06.097Z,7.53
2018-02-18T20:48:36.031Z,7.78
2018-02-18T20:51:05.266Z,7.76
2018-02-18T20:53:34.572Z,7.26
2018-02-18T20:56:03.891Z,7.58
2018-02-18T20:58:32.909Z,7.71
2018-02-18T21:01:01.986Z,7.83
2018-02-18T21:03:31.183Z,7.39
2018-02-18T21:06:00.099Z,7.65
2018-02-18T21:08:29.500Z,7.42
2018-02-18T21:10:59.073Z,8.05
2018-02-18T21:13:28.367Z,8.49
2018-02-18T21:15:57.542Z,7.75
2018-02-18T21:18:26.880Z,7.44
2018-02-18T21:20:55.922Z,7.43
2018-02-18T21:23:25.097Z,8.07
2018-02-18T21:25:54.476Z,7.56
2018-02-18T21:28:23.878Z,7.42
2018-02-18T21:30:53.017Z,7.33
2018-02-18T21:33:22.033Z,7.71
2018-02-18T21:35:51.293Z,7.86
2018-02-18T21:38:20.598Z,7.57
2018-02-18T21:40:49.966Z,7.32
2018-02-18T21:43:19.193Z,7.76
2018-02-18T21:45:48.139Z,7.38
2018-02-18T21:48:17.555Z,7.39
2018-02-18T21:50:46.765Z,8.24
2018-02-18T21:53:16.063Z,7.81
2018-02-18T21:55:45.457Z,7.94
2018-02-18T21:58:14.544Z,9.09
2018-02-18T22:00:43.866Z,8.04
2018-02-18T22:03:13.014Z,7.99
2018-02-18T22:05:42.710Z,7.58
2018-02-18T22:08:11.793Z,7.55
2018-02-18T22:10:41.470Z,7.31
2018-02-18T22:13:10.743Z,7.27
2018-02-18T22:15:39.943Z,7.22
2018-02-18T22:18:09.135Z,7.28
2018-02-18T22:20:38.389Z,7.30
2018-02-18T22:23:08.277Z,7.23
2018-02-18T22:25:37.371Z,7.64
2018-02-18T22:28:06.619Z,7.50
2018-02-18T22:30:35.770Z,7.36
2018-02-18T22:33:04.945Z,7.32
2018-02-18T22:35:34.287Z,7.38
2018-02-18T22:38:04.024Z,7.52
2018-02-18T22:40:34.303Z,7.70
2018-02-18T22:43:03.822Z,7.85
2018-02-18T22:45:33.216Z,8.02
2018-02-18T22:48:02.383Z,7.93
2018-02-18T22:50:31.826Z,8.71
2018-02-18T22:53:01.431Z,8.75
2018-02-18T22:55:30.835Z,8.51
2018-02-18T22:57:59.962Z,8.28
2018-02-18T23:00:29.118Z,8.22
2018-02-18T23:02:58.457Z,8.19
2018-02-18T23:05:32.867Z,8.32
2018-02-18T23:08:02.083Z,8.16
2018-02-18T23:10:31.126Z,8.20
2018-02-18T23:13:00.151Z,8.20
2018-02-18T23:15:29.371Z,8.05
2018-02-18T23:17:58.367Z,7.98
2018-02-18T23:20:33.258Z,8.14
2018-02-18T23:23:02.090Z,8.44
2018-02-18T23:25:31.540Z,8.53
2018-02-18T23:28:00.539Z,8.11
2018-02-18T23:30:29.699Z,8.14
2018-02-18T23:32:58.739Z,8.02
2018-02-18T23:35:27.935Z,7.88
2018-02-18T23:37:57.061Z,7.86
2018-02-18T23:40:26.505Z,7.63
2018-02-18T23:42:56.049Z,8.04
2018-02-18T23:45:25.405Z,7.73
2018-02-18T23:47:55.158Z,7.56
2018-02-18T23:50:24.415Z,7.45
2018-02-18T23:52:53.474Z,7.58
2018-02-18T23:55:22.845Z,7.47
2018-02-18T23:57:52.029Z,7.68
